Time;durP1;ratioP1;P1;durP2;ratioP2;P2;SDS_P1;SDS_P2;PMS_P1;PMS_P2;Temp;Humidity;BMP_temperature;BMP_pressure;BME280_temperature;BME280_humidity;BME280_pressure;Samples;Min_cycle;Max_cycle;Signal;HPM_P1;HPM_P2
2023/08/11 00:02:12;;;;;;;6.30;4.10;;;;;;;20.08;55.45;99232.16;6989514;28;20218;-83
2023/08/11 00:05:36;;;;;;;3.40;3.10;;;;;;;20.04;54.90;99214.56;6982937;28;20202;-82
2023/08/11 00:08:58;;;;;;;8.07;3.70;;;;;;;19.69;56.23;99232.44;6989851;28;20205;-82
2023/08/11 00:12:19;;;;;;;5.13;3.93;;;;;;;19.83;56.76;99229.09;6981054;28;20218;-84
2023/08/11 00:15:43;;;;;;;4.10;3.70;;;;;;;19.96;56.40;99223.22;6974588;28;20601;-83
2023/08/11 00:19:05;;;;;;;5.70;3.40;;;;;;;19.79;56.36;99227.09;6974172;28;20202;-83
2023/08/11 00:22:27;;;;;;;3.97;3.30;;;;;;;19.51;57.54;99224.53;6972155;28;20242;-83
2023/08/11 00:25:49;;;;;;;4.67;3.90;;;;;;;19.19;58.07;99237.13;6972400;28;20658;-83
2023/08/11 00:29:11;;;;;;;5.47;3.70;;;;;;;19.23;58.31;99220.00;6971804;28;20296;-83
2023/08/11 00:32:34;;;;;;;3.97;3.57;;;;;;;19.66;57.26;99222.00;6972128;28;20233;-83
2023/08/11 00:35:55;;;;;;;8.30;3.97;;;;;;;19.68;56.94;99233.50;6996687;28;20296;-83
2023/08/11 00:39:17;;;;;;;3.97;3.67;;;;;;;19.24;57.93;99235.34;6999076;28;20699;-83
2023/08/11 00:42:38;;;;;;;10.10;4.10;;;;;;;19.40;57.65;99244.63;6974470;28;20241;-83
2023/08/11 00:46:05;;;;;;;5.67;3.57;;;;;;;19.14;58.05;99245.25;6975483;28;20225;-84
2023/08/11 00:49:28;;;;;;;7.73;4.13;;;;;;;19.14;58.82;99235.16;6976852;28;20285;-83
2023/08/11 00:52:50;;;;;;;6.83;3.90;;;;;;;19.19;58.19;99220.72;6992492;28;20259;-84
2023/08/11 00:56:13;;;;;;;4.70;3.77;;;;;;;19.18;58.27;99219.09;6984981;28;20218;-84
2023/08/11 00:59:35;;;;;;;6.60;4.20;;;;;;;19.21;57.84;99226.84;6980653;28;20666;-83
2023/08/11 01:02:57;;;;;;;5.47;3.83;;;;;;;19.12;58.31;99231.00;7000869;28;20252;-84
2023/08/11 01:06:25;;;;;;;5.03;3.97;;;;;;;19.40;57.52;99234.50;6998058;28;20254;-84
2023/08/11 01:09:52;;;;;;;3.83;3.50;;;;;;;19.05;58.48;99227.63;7002220;28;20569;-83
2023/08/11 01:13:18;;;;;;;5.73;3.70;;;;;;;19.43;57.54;99234.00;7005191;28;20222;-84
2023/08/11 01:16:40;;;;;;;5.47;3.67;;;;;;;19.52;57.15;99232.47;7003538;28;20198;-83
2023/08/11 01:20:08;;;;;;;5.50;3.97;;;;;;;18.86;58.87;99216.09;6999204;28;20705;-83
2023/08/11 01:23:31;;;;;;;4.30;3.90;;;;;;;18.70;58.57;99156.81;6977284;28;20237;-82
2023/08/11 01:26:53;;;;;;;5.43;4.00;;;;;;;19.10;57.93;99236.72;7002109;28;20295;-84
2023/08/11 01:30:14;;;;;;;6.07;3.97;;;;;;;18.90;59.02;99236.41;7005406;28;20241;-84
2023/08/11 01:33:36;;;;;;;5.30;3.87;;;;;;;18.81;59.07;99243.34;6993500;28;20271;-84
2023/08/11 01:37:00;;;;;;;4.87;3.93;;;;;;;18.95;58.63;99233.75;6997281;28;20235;-84
2023/08/11 01:40:23;;;;;;;4.00;3.60;;;;;;;18.90;58.66;99241.88;7000338;28;20227;-84
2023/08/11 01:43:45;;;;;;;7.87;4.00;;;;;;;19.25;58.02;99245.22;6972906;28;20265;-85
2023/08/11 01:47:09;;;;;;;4.27;3.90;;;;;;;19.08;58.29;99248.97;6969102;28;20296;-83
2023/08/11 01:50:31;;;;;;;4.13;3.70;;;;;;;18.88;58.40;99254.13;6988282;28;20555;-83
2023/08/11 01:53:53;;;;;;;4.50;4.10;;;;;;;18.83;58.79;99254.88;7002042;28;20291;-84
2023/08/11 01:57:16;;;;;;;7.07;4.33;;;;;;;18.22;59.77;99192.00;6999700;28;20221;-83
2023/08/11 02:00:37;;;;;;;5.23;3.93;;;;;;;18.61;59.67;99256.66;7004508;28;20208;-83
2023/08/11 02:04:00;;;;;;;3.93;3.57;;;;;;;18.18;59.97;99204.50;6999962;28;20294;-84
2023/08/11 02:07:22;;;;;;;4.70;3.87;;;;;;;18.23;60.34;99241.97;6977316;28;20336;-84
2023/08/11 02:10:44;;;;;;;4.77;3.83;;;;;;;18.81;59.50;99231.59;7004847;28;20258;-84
2023/08/11 02:14:07;;;;;;;4.13;3.73;;;;;;;19.21;58.26;99243.22;7004162;28;20205;-84
2023/08/11 02:17:31;;;;;;;4.30;3.73;;;;;;;18.77;58.34;99189.44;6978533;28;20287;-84
2023/08/11 02:20:52;;;;;;;4.13;3.77;;;;;;;19.33;57.42;99222.91;6976287;28;20340;-84
2023/08/11 02:24:14;;;;;;;4.07;3.70;;;;;;;19.32;57.33;99236.81;6987496;28;20213;-84
2023/08/11 02:27:35;;;;;;;4.40;4.00;;;;;;;19.11;58.11;99241.09;6983306;28;20655;-84
2023/08/11 02:30:58;;;;;;;4.10;3.70;;;;;;;19.15;58.14;99242.28;7001935;28;20254;-83
2023/08/11 02:34:20;;;;;;;5.77;3.80;;;;;;;18.93;58.22;99237.81;7004196;28;20343;-83
2023/08/11 02:37:42;;;;;;;6.27;4.53;;;;;;;18.52;59.06;99219.06;7004326;28;20755;-82
2023/08/11 02:41:04;;;;;;;7.10;4.30;;;;;;;18.51;59.93;99252.91;6988803;28;20229;-84
2023/08/11 02:44:25;;;;;;;5.90;4.00;;;;;;;18.68;59.33;99240.94;6978882;28;20202;-84
2023/08/11 02:47:48;;;;;;;5.10;4.27;;;;;;;18.33;60.65;99240.28;6976945;28;20248;-84
2023/08/11 02:51:10;;;;;;;4.10;3.70;;;;;;;18.66;59.92;99223.97;6978744;28;20314;-84
2023/08/11 02:54:31;;;;;;;7.33;4.03;;;;;;;18.29;59.16;99129.06;6978777;28;20214;-84
2023/08/11 02:57:53;;;;;;;7.63;4.10;;;;;;;18.86;58.70;99237.16;6975810;28;20247;-84
2023/08/11 03:01:15;;;;;;;7.00;4.60;;;;;;;17.96;60.42;99211.69;6976175;28;20664;-83
2023/08/11 03:04:38;;;;;;;4.27;3.93;;;;;;;18.56;59.84;99220.22;6973901;28;20702;-83
2023/08/11 03:07:59;;;;;;;5.87;4.13;;;;;;;18.58;59.37;99220.81;6972944;28;20297;-83
2023/08/11 03:11:21;;;;;;;3.97;3.50;;;;;;;18.72;59.06;99235.81;6973163;28;20378;-84
2023/08/11 03:14:42;;;;;;;4.67;4.27;;;;;;;18.66;59.06;99198.53;6973501;28;20659;-83
2023/08/11 03:18:04;;;;;;;4.53;4.13;;;;;;;18.80;58.77;99230.75;6976441;28;20209;-84
2023/08/11 03:21:27;;;;;;;5.87;4.20;;;;;;;17.92;59.21;99089.66;7000960;28;20801;-84
2023/08/11 03:24:49;;;;;;;4.80;3.87;;;;;;;17.70;59.37;99083.22;6992885;28;20817;-84
2023/08/11 03:28:10;;;;;;;6.53;4.33;;;;;;;18.55;59.78;99229.47;6981025;28;20217;-85
2023/08/11 03:31:32;;;;;;;7.13;4.10;;;;;;;18.44;59.77;99231.22;6988649;28;20224;-84
2023/08/11 03:34:54;;;;;;;5.20;3.97;;;;;;;18.52;59.68;99247.19;7009213;28;20235;-84
2023/08/11 03:38:18;;;;;;;5.67;3.90;;;;;;;18.46;59.34;99220.06;7007231;28;20255;-83
2023/08/11 03:41:39;;;;;;;4.00;3.60;;;;;;;18.76;59.00;99240.53;7001476;28;20232;-85
2023/08/11 03:45:00;;;;;;;6.23;4.03;;;;;;;18.52;59.20;99238.19;6983640;28;20251;-84
2023/08/11 03:48:22;;;;;;;4.83;4.37;;;;;;;18.42;59.45;99252.47;6989278;28;20668;-83
2023/08/11 03:51:44;;;;;;;4.40;4.00;;;;;;;18.58;59.67;99246.19;6995143;28;20243;-86
2023/08/11 03:55:09;;;;;;;4.97;4.03;;;;;;;18.60;59.42;99245.97;6994426;28;20295;-83
2023/08/11 03:58:35;;;;;;;4.43;4.10;;;;;;;18.44;59.61;99241.28;6973452;28;20283;-86
2023/08/11 04:01:56;;;;;;;4.40;4.00;;;;;;;18.47;59.45;99257.19;6973523;28;20239;-83
2023/08/11 04:05:18;;;;;;;6.33;3.97;;;;;;;18.79;58.93;99248.22;6974101;28;20236;-84
2023/08/11 04:08:39;;;;;;;4.87;3.57;;;;;;;18.64;59.10;99241.69;6975094;28;20261;-84
2023/08/11 04:12:02;;;;;;;4.20;3.63;;;;;;;18.43;59.24;99237.75;6975809;28;20260;-84
2023/08/11 04:15:24;;;;;;;6.53;4.27;;;;;;;18.36;59.61;99250.72;6975008;28;20303;-85
2023/08/11 04:18:45;;;;;;;4.80;4.40;;;;;;;18.36;59.77;99253.47;6986376;28;20260;-84
2023/08/11 04:22:07;;;;;;;10.23;4.47;;;;;;;18.47;59.54;99247.13;7000670;28;20316;-85
2023/08/11 04:25:29;;;;;;;4.77;4.27;;;;;;;18.52;59.10;99232.72;6981069;28;20210;-83
2023/08/11 04:28:52;;;;;;;5.73;4.47;;;;;;;18.64;58.79;99238.94;6983739;28;20343;-82
2023/08/11 04:32:14;;;;;;;5.60;4.67;;;;;;;18.41;59.93;99244.53;6990257;28;20224;-83
2023/08/11 04:35:35;;;;;;;7.30;4.37;;;;;;;18.45;60.13;99243.78;6985673;28;20239;-84
2023/08/11 04:38:57;;;;;;;4.70;4.30;;;;;;;18.49;59.76;99249.59;6970357;28;21104;-84
2023/08/11 04:42:20;;;;;;;4.77;4.27;;;;;;;18.67;59.41;99243.91;6992803;28;20250;-83
2023/08/11 04:45:43;;;;;;;6.83;4.37;;;;;;;18.81;59.17;99243.34;6972532;28;20262;-83
2023/08/11 04:49:05;;;;;;;4.37;3.93;;;;;;;18.72;59.29;99227.59;6971994;28;20244;-83
2023/08/11 04:52:27;;;;;;;10.63;4.57;;;;;;;18.80;59.53;99240.88;6974647;28;20218;-83
2023/08/11 04:55:48;;;;;;;5.97;4.03;;;;;;;18.89;59.02;99239.38;6976897;28;20270;-83
2023/08/11 04:59:10;;;;;;;5.87;4.53;;;;;;;19.13;59.22;99238.13;6999883;28;20675;-83
2023/08/11 05:02:33;;;;;;;6.20;4.03;;;;;;;19.22;58.80;99242.16;6986053;28;20312;-84
2023/08/11 05:05:55;;;;;;;6.67;4.43;;;;;;;19.09;59.18;99239.69;6995309;28;20689;-83
2023/08/11 05:09:16;;;;;;;4.30;3.90;;;;;;;18.69;59.72;99209.81;6969595;28;20234;-84
2023/08/11 05:12:38;;;;;;;5.67;4.23;;;;;;;19.00;59.44;99243.94;6982094;28;20233;-84
2023/08/11 05:15:59;;;;;;;5.83;4.50;;;;;;;18.77;60.50;99255.84;6984289;28;20216;-86
2023/08/11 05:19:25;;;;;;;5.03;4.40;;;;;;;18.88;60.68;99227.59;6997442;28;20237;-85
2023/08/11 05:22:47;;;;;;;4.97;4.47;;;;;;;19.04;60.13;99201.38;6998456;28;20229;-83
2023/08/11 05:26:09;;;;;;;5.10;4.60;;;;;;;19.44;59.39;99232.91;6997531;28;20601;-83
2023/08/11 05:29:30;;;;;;;7.23;4.03;;;;;;;19.93;58.78;99255.75;6999710;28;20656;-83
2023/08/11 05:32:52;;;;;;;5.00;4.40;;;;;;;20.46;57.49;99261.38;6998319;28;20763;-84
2023/08/11 05:36:15;;;;;;;4.37;4.00;;;;;;;21.15;57.02;99250.25;6986025;28;20225;-85
2023/08/11 05:39:38;;;;;;;8.20;3.97;;;;;;;21.66;54.11;99244.06;7004389;28;20287;-83
2023/08/11 05:43:00;;;;;;;4.30;3.90;;;;;;;22.16;53.44;99261.63;7002508;28;20229;-84
2023/08/11 05:46:21;;;;;;;5.13;4.03;;;;;;;22.30;52.61;99243.53;7001544;28;20233;-84
2023/08/11 05:49:43;;;;;;;5.13;4.00;;;;;;;21.80;53.43;99242.50;7001993;28;20773;-84
2023/08/11 05:53:06;;;;;;;5.57;4.33;;;;;;;22.21;53.21;99244.34;6989324;28;20328;-84
2023/08/11 05:56:27;;;;;;;6.43;4.20;;;;;;;22.83;52.11;99258.81;6973060;28;20358;-85
2023/08/11 05:59:49;;;;;;;3.90;3.60;;;;;;;22.88;51.76;99254.16;6974419;28;20577;-85
2023/08/11 06:03:10;;;;;;;4.67;4.07;;;;;;;23.14;51.15;99266.00;6974174;28;20323;-85
2023/08/11 06:06:32;;;;;;;6.83;3.80;;;;;;;23.67;50.60;99243.41;6980001;28;20371;-84
2023/08/11 06:09:55;;;;;;;4.17;3.77;;;;;;;22.91;50.86;99165.59;6993051;28;20287;-85
2023/08/11 06:13:16;;;;;;;4.90;3.60;;;;;;;23.69;49.49;99264.06;6973937;28;20515;-86
2023/08/11 06:16:38;;;;;;;4.60;3.60;;;;;;;23.90;49.55;99254.66;7000640;28;21098;-85
2023/08/11 06:20:01;;;;;;;6.67;3.60;;;;;;;24.30;47.53;99259.19;7001313;28;20220;-85
2023/08/11 06:23:22;;;;;;;4.00;3.37;;;;;;;25.08;47.04;99260.94;7000029;28;20226;-85
2023/08/11 06:26:45;;;;;;;4.00;3.60;;;;;;;24.52;47.59;99221.03;6985471;28;20709;-86
2023/08/11 06:30:09;;;;;;;4.57;3.80;;;;;;;25.08;47.33;99247.16;7000758;28;20342;-86
2023/08/11 06:33:31;;;;;;;4.07;3.67;;;;;;;25.30;45.81;99258.59;6992174;28;20227;-86
2023/08/11 06:36:55;;;;;;;3.87;3.47;;;;;;;25.41;45.84;99241.63;6999490;28;20198;-86
2023/08/11 06:40:19;;;;;;;3.63;3.33;;;;;;;25.06;47.07;99255.72;7001986;28;20237;-86
2023/08/11 06:44:01;;;;;;;4.20;3.40;;;;;;;24.36;46.56;99110.03;6999805;28;20290;-86
2023/08/11 06:47:23;;;;;;;3.40;3.07;;;;;;;25.37;47.05;99248.03;6981582;28;20206;-86
2023/08/11 06:50:45;;;;;;;6.83;3.67;;;;;;;25.25;46.73;99245.63;6992297;28;20198;-85
2023/08/11 06:54:06;;;;;;;4.83;3.10;;;;;;;25.75;45.48;99241.56;6982191;28;20735;-86
2023/08/11 06:57:29;;;;;;;6.93;3.70;;;;;;;25.30;46.59;99251.13;6990512;28;20244;-84
2023/08/11 07:00:52;;;;;;;3.53;3.23;;;;;;;24.84;46.12;99138.66;6972900;28;20226;-83
2023/08/11 07:04:14;;;;;;;3.87;2.80;;;;;;;25.98;45.40;99243.56;6973659;28;20225;-84
2023/08/11 07:07:35;;;;;;;4.90;3.20;;;;;;;26.99;43.91;99257.69;6975124;28;20235;-84
2023/08/11 07:10:57;;;;;;;3.50;3.17;;;;;;;26.90;43.97;99257.53;6974343;28;20268;-84
2023/08/11 07:14:18;;;;;;;4.00;3.60;;;;;;;26.78;42.96;99254.41;6974537;28;20282;-84
2023/08/11 07:17:41;;;;;;;5.00;3.87;;;;;;;27.11;43.60;99247.81;6973933;28;20222;-85
2023/08/11 07:21:02;;;;;;;5.27;4.07;;;;;;;27.61;41.40;99262.75;6972323;28;20231;-85
2023/08/11 07:24:24;;;;;;;4.23;3.93;;;;;;;26.60;43.56;99260.75;6971101;28;20222;-85
2023/08/11 07:27:45;;;;;;;4.97;3.60;;;;;;;26.42;43.27;99260.72;6971787;28;20210;-85
2023/08/11 07:31:07;;;;;;;5.20;3.67;;;;;;;26.66;43.01;99267.06;6972515;28;20368;-83
2023/08/11 07:34:30;;;;;;;4.37;3.93;;;;;;;26.96;42.77;99261.88;6972418;28;20244;-84
2023/08/11 07:37:54;;;;;;;4.20;3.60;;;;;;;26.56;42.98;99270.78;6976362;28;20233;-84
2023/08/11 07:41:15;;;;;;;4.17;3.77;;;;;;;26.60;43.45;99271.81;6998984;28;20230;-84
2023/08/11 07:44:37;;;;;;;4.20;3.70;;;;;;;26.68;42.41;99271.16;6999647;28;20712;-84
2023/08/11 07:47:58;;;;;;;4.27;3.10;;;;;;;28.03;41.12;99276.41;6998757;28;20237;-84
2023/08/11 07:51:21;;;;;;;4.00;3.60;;;;;;;27.54;41.10;99274.22;6990222;28;20381;-83
2023/08/11 07:54:43;;;;;;;3.70;3.40;;;;;;;28.96;39.57;99277.50;6982270;28;20271;-84
2023/08/11 07:58:05;;;;;;;4.10;3.70;;;;;;;28.81;38.98;99271.44;6974858;28;20296;-83
2023/08/11 08:01:27;;;;;;;4.47;3.40;;;;;;;28.81;39.35;99260.31;6981512;28;20713;-84
2023/08/11 08:04:49;;;;;;;4.23;3.87;;;;;;;29.14;38.19;99275.69;7001772;28;20369;-83
2023/08/11 08:08:12;;;;;;;3.93;3.53;;;;;;;29.71;37.63;99194.22;7008360;28;20232;-82
2023/08/11 08:11:34;;;;;;;3.57;3.23;;;;;;;29.60;38.25;99273.44;6999671;28;20228;-83
2023/08/11 08:14:56;;;;;;;4.53;3.47;;;;;;;28.80;39.04;99229.00;6972651;28;20209;-84
2023/08/11 08:18:17;;;;;;;4.17;3.23;;;;;;;28.28;40.62;99199.06;6971981;28;20660;-84
2023/08/11 08:21:39;;;;;;;3.90;3.40;;;;;;;30.05;38.06;99270.25;6992300;28;20860;-84
2023/08/11 08:25:06;;;;;;;3.50;3.20;;;;;;;28.59;40.22;99279.69;6976255;28;20222;-84
2023/08/11 08:28:28;;;;;;;3.30;3.00;;;;;;;29.67;37.99;99273.81;6999025;28;20210;-85
2023/08/11 08:31:49;;;;;;;3.13;2.87;;;;;;;31.13;36.14;99271.22;6986011;28;20240;-84
2023/08/11 08:35:11;;;;;;;4.53;3.73;;;;;;;31.89;34.49;99282.31;6971219;28;20242;-86
2023/08/11 08:38:32;;;;;;;3.50;3.20;;;;;;;32.44;33.13;99277.50;6970621;28;20260;-87
2023/08/11 08:41:55;;;;;;;4.57;3.40;;;;;;;31.81;33.71;99277.59;6971174;28;20226;-85
2023/08/11 08:45:18;;;;;;;3.70;3.23;;;;;;;32.15;33.79;99263.53;6972991;28;20345;-85
2023/08/11 08:48:44;;;;;;;3.97;3.60;;;;;;;32.21;34.35;99278.94;6988319;28;20286;-84
2023/08/11 08:52:06;;;;;;;4.30;3.20;;;;;;;31.85;32.97;99242.28;6988878;28;20818;-85
2023/08/11 08:55:28;;;;;;;3.53;3.23;;;;;;;31.66;34.79;99268.91;6968960;28;20228;-85
2023/08/11 08:58:51;;;;;;;4.37;2.80;;;;;;;33.04;32.09;99249.22;6969258;28;20207;-85
2023/08/11 09:02:13;;;;;;;3.03;2.83;;;;;;;33.33;32.19;99260.34;6969184;28;20249;-84
2023/08/11 09:05:35;;;;;;;3.60;3.07;;;;;;;32.83;32.31;99229.66;6971336;28;20700;-84
2023/08/11 09:08:59;;;;;;;4.97;3.23;;;;;;;32.14;33.95;99227.56;6995182;28;20559;-83
2023/08/11 09:12:20;;;;;;;3.40;3.10;;;;;;;33.15;34.70;99240.09;6996310;28;20296;-83
2023/08/11 09:15:43;;;;;;;4.70;3.40;;;;;;;33.33;32.66;99236.00;6986079;28;20228;-84
2023/08/11 09:19:07;;;;;;;4.33;3.30;;;;;;;32.86;32.11;99240.16;7009800;28;20654;-83
2023/08/11 09:22:32;;;;;;;4.57;3.17;;;;;;;32.73;31.78;99232.81;7010753;28;20229;-81
2023/08/11 09:25:54;;;;;;;3.37;3.10;;;;;;;32.78;31.80;99235.44;7007723;28;20197;-83
2023/08/11 09:29:17;;;;;;;3.20;2.90;;;;;;;32.89;32.55;99235.88;7003926;28;20204;-85
2023/08/11 09:32:40;;;;;;;3.30;3.00;;;;;;;34.04;30.85;99231.78;6991350;28;20220;-86
2023/08/11 09:36:02;;;;;;;3.50;3.20;;;;;;;31.01;35.52;99220.91;6996656;28;20335;-85
2023/08/11 09:39:23;;;;;;;4.53;3.90;;;;;;;31.58;34.91;99216.75;6997383;28;20205;-87
2023/08/11 09:42:46;;;;;;;11.07;5.63;;;;;;;32.78;33.87;99226.25;6976661;28;20286;-84
2023/08/11 09:46:07;;;;;;;13.67;5.70;;;;;;;33.14;32.18;99212.47;6978122;28;20211;-87
2023/08/11 09:49:30;;;;;;;4.47;3.23;;;;;;;33.27;31.60;99215.00;6980962;28;20279;-82
2023/08/11 09:52:52;;;;;;;8.10;5.47;;;;;;;31.62;33.98;99204.63;6994522;28;20267;-84
2023/08/11 09:56:15;;;;;;;4.13;3.47;;;;;;;32.27;32.86;99215.38;6984614;28;20237;-83
2023/08/11 09:59:38;;;;;;;3.77;3.13;;;;;;;32.71;32.10;99206.38;6973400;28;20237;-84
2023/08/11 10:03:05;;;;;;;6.53;3.70;;;;;;;32.69;32.49;99184.38;6971351;28;20229;-84
2023/08/11 10:06:31;;;;;;;6.50;3.90;;;;;;;33.20;32.07;99186.75;6974719;28;20190;-84
2023/08/11 10:09:53;;;;;;;4.33;3.10;;;;;;;34.30;30.41;99209.88;6997464;28;20216;-84
2023/08/11 10:13:17;;;;;;;4.50;3.07;;;;;;;33.39;30.19;99177.88;6997141;28;20260;-84
2023/08/11 10:16:39;;;;;;;6.10;3.40;;;;;;;34.19;28.94;99172.28;6994325;28;20222;-85
2023/08/11 10:20:04;;;;;;;5.10;3.00;;;;;;;33.92;30.48;99209.38;6999946;28;20724;-85
2023/08/11 10:23:28;;;;;;;3.20;2.90;;;;;;;34.54;29.77;99195.84;6978811;28;20234;-86
2023/08/11 10:26:50;;;;;;;3.00;2.80;;;;;;;34.06;29.34;99153.03;6980824;28;20194;-83
2023/08/11 10:30:14;;;;;;;4.83;3.20;;;;;;;33.56;31.69;99211.25;7001907;28;20233;-83
2023/08/11 10:33:36;;;;;;;3.33;2.80;;;;;;;33.07;30.80;99111.59;6999502;28;20222;-84
2023/08/11 10:36:58;;;;;;;3.90;3.00;;;;;;;34.40;29.01;99173.00;6975902;28;20214;-83
2023/08/11 10:40:21;;;;;;;3.40;3.10;;;;;;;35.19;28.23;99203.06;6974918;28;20245;-84
2023/08/11 10:43:48;;;;;;;2.83;2.63;;;;;;;35.00;28.16;99209.31;6974547;28;20235;-84
2023/08/11 10:47:09;;;;;;;3.80;2.90;;;;;;;32.75;31.50;99198.97;6974392;28;20638;-84
2023/08/11 10:50:31;;;;;;;3.67;3.10;;;;;;;33.02;31.01;99216.00;6978052;28;20280;-85
2023/08/11 10:53:55;;;;;;;3.23;2.93;;;;;;;33.86;29.65;99215.53;7019595;28;20241;-86
2023/08/11 10:57:20;;;;;;;4.77;3.33;;;;;;;34.02;29.63;99205.31;7029104;28;20591;-85
2023/08/11 11:00:42;;;;;;;3.43;3.13;;;;;;;33.50;30.12;99221.81;7025867;28;20821;-83
2023/08/11 11:04:04;;;;;;;3.20;3.00;;;;;;;33.05;30.63;99197.75;7027213;28;20225;-86
2023/08/11 11:07:26;;;;;;;5.10;3.03;;;;;;;33.27;30.07;99156.31;7025883;28;20243;-86
2023/08/11 11:10:48;;;;;;;3.07;2.80;;;;;;;35.18;28.22;99209.81;7030820;28;20212;-85
2023/08/11 11:14:15;;;;;;;3.70;3.27;;;;;;;34.55;28.43;99135.06;7031622;28;20570;-86
2023/08/11 11:17:39;;;;;;;4.07;3.30;;;;;;;33.94;30.09;99186.63;6976594;28;20262;-82
2023/08/11 11:21:00;;;;;;;3.17;2.77;;;;;;;35.53;28.36;99199.63;7003098;28;20260;-85
2023/08/11 11:24:22;;;;;;;3.33;2.77;;;;;;;35.79;27.06;99186.75;7001874;28;20279;-82
2023/08/11 11:27:43;;;;;;;5.30;2.80;;;;;;;35.03;27.71;99199.38;7001177;28;20304;-82
2023/08/11 11:31:06;;;;;;;3.57;3.07;;;;;;;35.68;27.30;99199.69;6974399;28;20356;-83
2023/08/11 11:34:29;;;;;;;3.27;2.93;;;;;;;36.91;26.15;99195.13;6994659;28;20289;-82
2023/08/11 11:37:52;;;;;;;3.20;2.90;;;;;;;36.80;26.43;99190.47;6983257;28;20267;-83
2023/08/11 11:41:15;;;;;;;3.17;2.67;;;;;;;36.50;26.79;99190.16;6975565;28;20284;-82
2023/08/11 11:44:36;;;;;;;3.00;2.77;;;;;;;35.79;26.56;99195.16;6973280;28;20703;-82
2023/08/11 11:47:59;;;;;;;3.47;2.57;;;;;;;34.20;28.00;99100.31;6986146;28;20220;-82
2023/08/11 11:51:24;;;;;;;2.97;2.67;;;;;;;34.86;28.07;99183.69;6985533;28;20283;-82
2023/08/11 11:54:51;;;;;;;3.17;2.87;;;;;;;35.31;27.83;99184.22;7000269;28;20304;-82
2023/08/11 11:58:12;;;;;;;3.37;3.07;;;;;;;35.99;27.16;99184.84;6993404;28;20328;-81
2023/08/11 12:01:38;;;;;;;3.10;2.80;;;;;;;35.52;27.12;99167.97;6977963;28;20227;-81
2023/08/11 12:05:00;;;;;;;3.73;3.43;;;;;;;36.14;26.22;99159.56;7029074;28;20229;-81
2023/08/11 12:08:24;;;;;;;4.60;3.07;;;;;;;35.38;26.92;99085.44;7027370;28;20290;-84
2023/08/11 12:11:46;;;;;;;3.40;2.87;;;;;;;36.58;25.11;99169.50;7027323;28;20233;-82
2023/08/11 12:15:09;;;;;;;4.70;2.73;;;;;;;37.08;25.47;99149.75;6998755;28;20203;-81
2023/08/11 12:18:31;;;;;;;3.70;2.67;;;;;;;36.78;25.41;99136.63;6972480;28;20206;-84
2023/08/11 12:21:54;;;;;;;3.37;2.60;;;;;;;35.68;26.44;99159.56;6988223;28;20249;-84
2023/08/11 12:25:17;;;;;;;3.50;2.80;;;;;;;35.00;27.14;99161.66;6984190;28;20279;-82
2023/08/11 12:28:40;;;;;;;2.90;2.70;;;;;;;36.21;25.57;99161.78;6981344;28;20203;-82
2023/08/11 12:32:01;;;;;;;4.53;2.70;;;;;;;35.80;26.12;99156.72;6988092;28;20218;-82
2023/08/11 12:35:23;;;;;;;2.70;2.50;;;;;;;37.09;25.26;99154.16;6973589;28;20206;-83
2023/08/11 12:38:47;;;;;;;2.87;2.50;;;;;;;36.99;25.09;99140.69;6972101;28;20210;-82
2023/08/11 12:42:10;;;;;;;3.03;2.83;;;;;;;35.58;25.48;99163.72;6971230;28;20784;-82
2023/08/11 12:45:31;;;;;;;2.90;2.67;;;;;;;36.52;25.65;99142.84;6990746;28;20704;-82
2023/08/11 12:48:53;;;;;;;3.00;2.70;;;;;;;37.32;25.23;99143.78;7008244;28;20735;-81
2023/08/11 12:52:14;;;;;;;3.70;2.60;;;;;;;36.38;25.44;99124.88;6989656;28;20712;-84
2023/08/11 12:55:38;;;;;;;3.33;3.03;;;;;;;36.52;24.88;99147.66;6974386;28;20267;-82
2023/08/11 12:59:00;;;;;;;3.97;2.60;;;;;;;36.85;24.86;99143.19;6972485;28;20202;-81
2023/08/11 13:02:53;;;;;;;2.93;2.60;;;;;;;37.72;23.45;99095.50;6999096;28;20227;-84
2023/08/11 13:06:16;;;;;;;2.90;2.30;;;;;;;37.54;23.56;99133.81;6993319;28;20221;-84
2023/08/11 13:09:38;;;;;;;2.53;2.33;;;;;;;36.41;24.54;99042.66;6999570;28;20533;-84
2023/08/11 13:13:01;;;;;;;3.13;2.83;;;;;;;36.80;25.28;99125.81;7005403;28;20221;-82
2023/08/11 13:16:23;;;;;;;2.90;2.60;;;;;;;36.37;25.16;99073.47;7001926;28;20212;-83
2023/08/11 13:19:44;;;;;;;3.60;2.47;;;;;;;36.79;25.21;99080.03;6972981;28;20305;-82
2023/08/11 13:23:06;;;;;;;3.43;2.50;;;;;;;37.43;24.67;99146.81;6972879;28;20317;-82
2023/08/11 13:26:28;;;;;;;5.33;2.40;;;;;;;36.88;24.21;99066.56;6972908;28;20226;-81
2023/08/11 13:29:51;;;;;;;2.90;2.50;;;;;;;37.13;24.82;99058.66;6973147;28;20223;-87
2023/08/11 13:33:12;;;;;;;2.80;2.40;;;;;;;36.41;25.15;99115.69;6972048;28;20225;-81
2023/08/11 13:36:34;;;;;;;4.07;2.60;;;;;;;36.78;25.14;99089.66;6987170;28;20217;-82
2023/08/11 13:40:06;;;;;;;3.10;2.80;;;;;;;36.82;25.12;99118.66;6999129;28;20208;-82
2023/08/11 13:43:35;;;;;;;2.70;2.50;;;;;;;37.35;23.78;99085.97;6998822;28;20224;-82
2023/08/11 13:46:59;;;;;;;2.80;2.57;;;;;;;38.21;22.75;99135.75;6999389;28;20189;-82
2023/08/11 13:50:21;;;;;;;3.37;2.30;;;;;;;37.98;23.63;99135.81;7000221;28;20190;-85
2023/08/11 13:53:42;;;;;;;2.80;2.60;;;;;;;37.05;23.86;99060.47;6992273;28;20245;-83
2023/08/11 13:57:04;;;;;;;2.93;2.50;;;;;;;37.56;23.94;99077.94;7000291;28;20206;-83
2023/08/11 14:00:26;;;;;;;3.63;2.47;;;;;;;36.70;24.65;99000.75;6981050;28;20248;-83
2023/08/11 14:03:49;;;;;;;2.30;2.10;;;;;;;37.45;24.30;99133.19;7001309;28;20265;-84
2023/08/11 14:07:10;;;;;;;2.70;2.50;;;;;;;36.66;24.42;98991.44;7004005;28;20204;-83
2023/08/11 14:10:32;;;;;;;4.27;2.50;;;;;;;36.75;24.95;99089.56;7004093;28;20198;-85
2023/08/11 14:13:54;;;;;;;2.80;2.53;;;;;;;36.38;25.28;99061.03;7003946;28;20209;-82
2023/08/11 14:17:15;;;;;;;2.73;2.53;;;;;;;36.21;25.88;99111.22;7003206;28;20233;-83
2023/08/11 14:20:38;;;;;;;2.73;2.50;;;;;;;36.68;25.26;99109.94;7004120;28;20194;-83
2023/08/11 14:23:59;;;;;;;2.60;2.40;;;;;;;36.49;25.31;99115.47;7003786;28;20267;-83
2023/08/11 14:27:21;;;;;;;3.07;2.77;;;;;;;36.31;26.22;99105.03;7000505;28;20576;-83
2023/08/11 14:30:43;;;;;;;2.80;2.60;;;;;;;35.08;26.22;99101.00;7015022;28;20277;-85
2023/08/11 14:34:04;;;;;;;2.40;2.20;;;;;;;36.02;26.10;99106.31;7005810;28;20611;-87
2023/08/11 14:37:27;;;;;;;2.53;2.33;;;;;;;35.92;25.81;99112.53;7003215;28;20271;-82
2023/08/11 14:40:49;;;;;;;2.87;2.67;;;;;;;36.39;25.05;99096.41;6999475;28;20342;-83
2023/08/11 14:44:10;;;;;;;2.87;2.67;;;;;;;34.89;26.79;99095.28;6986049;28;20228;-84
2023/08/11 14:47:32;;;;;;;3.60;2.47;;;;;;;35.78;26.52;99098.13;6975593;28;20693;-83
2023/08/11 14:50:53;;;;;;;4.30;2.90;;;;;;;35.31;26.64;99102.88;6982312;28;20702;-83
2023/08/11 14:54:16;;;;;;;3.00;2.80;;;;;;;34.45;27.91;99104.72;7003021;28;20221;-84
2023/08/11 14:57:38;;;;;;;3.60;2.40;;;;;;;35.65;26.66;99104.16;7004819;28;20220;-83
2023/08/11 15:00:59;;;;;;;2.80;2.60;;;;;;;35.22;26.75;99067.75;7004065;28;20225;-85
2023/08/11 15:04:21;;;;;;;3.53;2.40;;;;;;;34.83;26.63;99093.91;7004273;28;20268;-82
2023/08/11 15:07:43;;;;;;;2.60;2.40;;;;;;;34.44;27.88;99049.88;7002376;28;20577;-84
2023/08/11 15:11:05;;;;;;;2.93;2.60;;;;;;;35.83;25.84;99066.19;6996539;28;20233;-83
2023/08/11 15:14:27;;;;;;;3.10;2.40;;;;;;;36.10;26.34;99073.63;6988163;28;20251;-86
2023/08/11 15:17:49;;;;;;;2.80;2.60;;;;;;;36.78;25.53;99081.22;7002370;28;20238;-85
2023/08/11 15:21:12;;;;;;;4.87;2.43;;;;;;;36.64;24.81;99055.63;7001875;28;20276;-88
2023/08/11 15:24:33;;;;;;;5.37;2.37;;;;;;;36.26;25.94;99035.91;7003447;28;20695;-83
2023/08/11 15:28:07;;;;;;;3.23;2.27;;;;;;;36.69;25.06;99052.53;6979584;28;20669;-86
2023/08/11 15:31:29;;;;;;;3.20;2.70;;;;;;;36.13;25.90;99031.56;6999037;28;20241;-86
2023/08/11 15:34:51;;;;;;;3.17;2.57;;;;;;;36.15;25.88;99046.09;6990091;28;20202;-86
2023/08/11 15:38:12;;;;;;;3.03;2.63;;;;;;;35.74;26.46;99045.91;6988560;28;20191;-85
2023/08/11 15:41:34;;;;;;;4.40;2.40;;;;;;;35.53;26.43;99008.84;6991128;28;20465;-84
2023/08/11 15:44:57;;;;;;;2.57;2.37;;;;;;;35.32;26.62;99050.41;6987723;28;20669;-84
2023/08/11 15:48:18;;;;;;;2.90;2.67;;;;;;;35.37;26.32;99013.69;6989687;28;20234;-84
2023/08/11 15:51:40;;;;;;;4.37;2.60;;;;;;;35.68;26.29;99034.13;6977310;28;20284;-84
2023/08/11 15:55:01;;;;;;;3.03;2.60;;;;;;;36.00;26.38;99032.06;6983055;28;20298;-85